Time;durP1;ratioP1;P1;durP2;ratioP2;P2;SDS_P1;SDS_P2;PMS_P1;PMS_P2;Temp;Humidity;BMP_temperature;BMP_pressure;BME280_temperature;BME280_humidity;BME280_pressure;Samples;Min_cycle;Max_cycle;Signal;HPM_P1;HPM_P2
2023/11/02 00:00:34;;;;;;;3.75;1.27;;;17.70;70.70;;;;;;349882;28;995;-61
2023/11/02 00:00:45;;;;;;;5.15;2.00;;;17.70;70.70;;;;;;349862;28;1011;-61
2023/11/02 00:01:09;;;;;;;3.80;1.85;;;17.60;70.60;;;;;;349872;28;1491;-61
2023/11/02 00:01:19;;;;;;;4.35;1.45;;;17.60;70.50;;;;;;349700;28;973;-60
2023/11/02 00:01:35;;;;;;;4.97;1.65;;;17.60;70.60;;;;;;349815;28;1824;-61
2023/11/02 00:01:52;;;;;;;5.57;1.92;;;17.60;70.50;;;;;;349847;28;1201;-60
2023/11/02 00:02:03;;;;;;;3.78;1.45;;;17.50;70.80;;;;;;349709;28;1170;-61
2023/11/02 00:02:22;;;;;;;3.63;1.30;;;17.60;70.80;;;;;;349852;28;837;-60
2023/11/02 00:02:34;;;;;;;4.80;1.55;;;17.60;70.70;;;;;;349803;28;1007;-60
2023/11/02 00:02:45;;;;;;;4.75;1.85;;;17.60;70.60;;;;;;349878;28;1121;-60
2023/11/02 00:02:57;;;;;;;3.97;1.65;;;17.60;70.50;;;;;;349767;28;1019;-60
2023/11/02 00:03:08;;;;;;;3.95;1.45;;;17.60;70.50;;;;;;349853;28;905;-61
2023/11/02 00:03:31;;;;;;;4.63;1.30;;;17.60;70.40;;;;;;349884;28;892;-59
2023/11/02 00:03:42;;;;;;;5.68;1.40;;;17.70;70.30;;;;;;349704;28;1198;-61
2023/11/02 00:03:53;;;;;;;4.45;1.35;;;17.70;70.10;;;;;;349892;28;1026;-61
2023/11/02 00:04:04;;;;;;;4.97;1.30;;;17.60;70.10;;;;;;349901;28;881;-61
2023/11/02 00:04:15;;;;;;;4.17;1.20;;;17.60;70.40;;;;;;349837;28;1430;-61
2023/11/02 00:04:26;;;;;;;4.33;1.17;;;17.60;70.50;;;;;;349808;28;1033;-61
2023/11/02 00:04:37;;;;;;;4.00;1.20;;;17.50;70.60;;;;;;349889;28;959;-60
2023/11/02 00:04:50;;;;;;;4.13;1.30;;;17.50;70.60;;;;;;349869;28;908;-60
2023/11/02 00:05:02;;;;;;;5.30;1.30;;;17.50;70.50;;;;;;349860;28;877;-60
2023/11/02 00:05:58;;;;;;;5.38;1.30;;;17.50;70.60;;;;;;349755;28;1050;-60
2023/11/02 00:06:18;;;;;;;6.60;1.75;;;17.50;70.90;;;;;;348148;28;1119;-60
2023/11/02 00:06:33;;;;;;;4.43;1.40;;;17.50;70.90;;;;;;348184;28;1599;-60
2023/11/02 00:06:46;;;;;;;4.00;1.35;;;17.50;71.00;;;;;;348291;28;944;-60
2023/11/02 00:06:58;;;;;;;4.40;1.40;;;17.40;71.00;;;;;;348555;28;1831;-60
2023/11/02 00:07:10;;;;;;;4.55;1.42;;;17.40;71.10;;;;;;349837;28;1102;-60
2023/11/02 00:07:22;;;;;;;3.10;1.20;;;17.40;71.10;;;;;;349799;28;1043;-59
2023/11/02 00:07:41;;;;;;;3.90;1.10;;;17.50;71.10;;;;;;349723;28;1572;-60
2023/11/02 00:07:52;;;;;;;4.22;1.27;;;17.40;71.10;;;;;;349745;28;1139;-60
2023/11/02 00:08:03;;;;;;;3.40;1.30;;;17.50;70.90;;;;;;349726;28;1223;-60
2023/11/02 00:08:14;;;;;;;4.25;1.48;;;17.50;70.90;;;;;;349861;28;1023;-60
2023/11/02 00:08:32;;;;;;;5.55;1.42;;;17.50;70.90;;;;;;349792;28;1405;-60
2023/11/02 00:09:05;;;;;;;4.50;1.27;;;17.50;70.90;;;;;;349703;28;1415;-60
2023/11/02 00:09:34;;;;;;;5.22;1.27;;;17.50;70.60;;;;;;349806;28;929;-60
2023/11/02 00:09:46;;;;;;;3.72;1.35;;;17.30;70.90;;;;;;349794;28;1027;-60
2023/11/02 00:09:58;;;;;;;4.15;1.20;;;17.30;71.00;;;;;;349886;28;976;-60
2023/11/02 00:10:09;;;;;;;5.65;1.40;;;17.20;71.20;;;;;;349781;28;1374;-60
2023/11/02 00:10:19;;;;;;;5.18;1.40;;;17.20;71.30;;;;;;349801;28;999;-60
2023/11/02 00:10:30;;;;;;;4.10;1.33;;;17.20;71.40;;;;;;349749;28;1082;-60
2023/11/02 00:10:41;;;;;;;3.80;1.30;;;17.20;71.60;;;;;;349822;28;1016;-60
2023/11/02 00:10:52;;;;;;;3.92;1.42;;;17.20;71.50;;;;;;349860;28;833;-60
2023/11/02 00:11:04;;;;;;;4.07;1.60;;;17.20;71.50;;;;;;349680;28;1166;-60
2023/11/02 00:11:50;;;;;;;3.75;1.50;;;17.20;71.40;;;;;;349828;28;1208;-60
2023/11/02 00:12:07;;;;;;;3.75;1.40;;;17.30;71.70;;;;;;349677;28;1185;-59
2023/11/02 00:12:22;;;;;;;4.45;1.48;;;17.30;71.40;;;;;;349730;28;1705;-60
2023/11/02 00:12:33;;;;;;;4.60;1.60;;;17.40;71.20;;;;;;349785;28;1091;-60
2023/11/02 00:12:44;;;;;;;4.45;1.52;;;17.40;70.90;;;;;;349766;28;1083;-60
2023/11/02 00:12:54;;;;;;;4.65;1.45;;;17.40;70.60;;;;;;349823;28;1019;-60
2023/11/02 00:13:05;;;;;;;4.88;1.42;;;17.40;70.70;;;;;;349818;28;1229;-60
2023/11/02 00:13:19;;;;;;;5.00;1.40;;;17.40;70.80;;;;;;349747;28;1201;-61
2023/11/02 00:13:30;;;;;;;6.32;1.70;;;17.40;70.70;;;;;;349723;28;1040;-60
2023/11/02 00:13:42;;;;;;;6.57;1.80;;;17.40;70.90;;;;;;349908;28;853;-60
2023/11/02 00:13:53;;;;;;;5.30;1.50;;;17.40;70.90;;;;;;349823;28;1119;-60
2023/11/02 00:14:04;;;;;;;3.97;1.35;;;17.40;70.90;;;;;;349728;28;1126;-60
2023/11/02 00:14:16;;;;;;;4.97;1.43;;;17.40;70.70;;;;;;349806;28;1914;-60
2023/11/02 00:14:32;;;;;;;5.47;1.55;;;17.40;70.70;;;;;;349783;28;967;-60
2023/11/02 00:14:45;;;;;;;5.97;1.77;;;17.40;70.70;;;;;;349874;28;919;-61
2023/11/02 00:14:59;;;;;;;5.25;1.60;;;17.40;70.60;;;;;;349852;28;860;-61
2023/11/02 00:15:11;;;;;;;5.30;1.42;;;17.40;70.40;;;;;;349808;28;1213;-60
2023/11/02 00:15:22;;;;;;;5.20;1.60;;;17.40;70.40;;;;;;349597;28;1155;-61
2023/11/02 00:15:33;;;;;;;3.95;1.70;;;17.40;70.30;;;;;;349868;28;836;-60
2023/11/02 00:15:46;;;;;;;4.07;1.63;;;17.40;70.30;;;;;;349810;28;1263;-60
2023/11/02 00:15:59;;;;;;;4.28;1.52;;;17.40;70.20;;;;;;349765;28;1015;-60
2023/11/02 00:16:11;;;;;;;4.35;1.50;;;17.40;70.30;;;;;;349786;28;2495;-60
2023/11/02 00:16:21;;;;;;;4.85;1.50;;;17.40;70.40;;;;;;349843;28;1007;-61
2023/11/02 00:16:34;;;;;;;5.38;1.65;;;17.40;70.60;;;;;;349749;28;984;-60
2023/11/02 00:16:46;;;;;;;4.40;1.65;;;17.40;70.70;;;;;;349798;28;1110;-60
2023/11/02 00:16:57;;;;;;;5.53;1.80;;;17.40;70.60;;;;;;349858;28;881;-60
2023/11/02 00:17:33;;;;;;;5.00;1.70;;;17.40;70.40;;;;;;349735;28;895;-60
2023/11/02 00:17:49;;;;;;;3.50;1.40;;;17.50;70.30;;;;;;348094;28;1434;-60
2023/11/02 00:18:00;;;;;;;3.78;1.20;;;17.50;70.00;;;;;;348931;28;1921;-60
2023/11/02 00:18:11;;;;;;;3.55;1.15;;;17.50;70.00;;;;;;349801;28;1234;-60
2023/11/02 00:18:25;;;;;;;3.72;1.23;;;17.50;70.20;;;;;;349703;28;1353;-57
2023/11/02 00:18:36;;;;;;;4.40;1.40;;;17.50;70.20;;;;;;349843;28;1040;-60
2023/11/02 00:18:47;;;;;;;5.10;1.43;;;17.60;70.10;;;;;;349872;28;1070;-60
2023/11/02 00:18:58;;;;;;;4.47;1.35;;;17.60;70.00;;;;;;349688;28;987;-60
2023/11/02 00:19:33;;;;;;;4.35;1.40;;;17.60;70.00;;;;;;349784;28;1083;-60
2023/11/02 00:19:44;;;;;;;4.30;1.05;;;17.60;70.00;;;;;;349358;28;1857;-59
2023/11/02 00:19:55;;;;;;;4.43;1.10;;;17.60;69.80;;;;;;349823;28;1019;-60
2023/11/02 00:20:08;;;;;;;4.50;1.33;;;17.60;69.80;;;;;;349834;28;967;-60
2023/11/02 00:20:31;;;;;;;4.13;1.50;;;17.60;69.80;;;;;;349751;28;1291;-60
2023/11/02 00:20:42;;;;;;;4.07;1.67;;;17.60;69.70;;;;;;349807;28;983;-60
2023/11/02 00:20:58;;;;;;;4.05;1.48;;;17.60;69.60;;;;;;349682;28;1172;-60
2023/11/02 00:21:22;;;;;;;4.47;1.50;;;17.60;69.60;;;;;;349818;28;1063;-59
2023/11/02 00:21:33;;;;;;;4.85;1.23;;;17.60;69.70;;;;;;349797;28;1054;-61
2023/11/02 00:21:44;;;;;;;4.22;1.10;;;17.60;69.60;;;;;;349845;28;935;-60
2023/11/02 00:21:56;;;;;;;3.90;1.20;;;17.60;69.50;;;;;;349842;28;999;-60
2023/11/02 00:22:11;;;;;;;3.50;1.20;;;17.60;69.60;;;;;;349721;28;1062;-60
2023/11/02 00:22:22;;;;;;;4.40;1.30;;;17.60;69.50;;;;;;349842;28;980;-60
2023/11/02 00:22:38;;;;;;;5.90;1.40;;;17.60;69.50;;;;;;349767;28;1023;-60
2023/11/02 00:22:48;;;;;;;4.65;1.20;;;17.70;69.50;;;;;;349788;28;1844;-60
2023/11/02 00:23:00;;;;;;;5.00;1.20;;;17.60;69.40;;;;;;349799;28;1248;-60
2023/11/02 00:23:12;;;;;;;5.82;1.30;;;17.70;69.50;;;;;;349761;28;1677;-60
2023/11/02 00:23:43;;;;;;;5.65;1.73;;;17.60;69.20;;;;;;349663;28;1462;-60
2023/11/02 00:23:54;;;;;;;4.25;1.73;;;17.50;69.50;;;;;;349751;28;1031;-61
2023/11/02 00:24:05;;;;;;;4.17;1.73;;;17.40;69.80;;;;;;349764;28;1078;-59
2023/11/02 00:24:17;;;;;;;5.05;1.70;;;17.40;70.00;;;;;;349841;28;1469;-60
2023/11/02 00:24:28;;;;;;;5.13;1.60;;;17.40;70.10;;;;;;349786;28;1069;-60
2023/11/02 00:24:41;;;;;;;4.72;1.60;;;17.40;70.10;;;;;;349766;28;967;-59
2023/11/02 00:24:52;;;;;;;4.30;1.50;;;17.40;70.10;;;;;;349839;28;931;-59
2023/11/02 00:25:05;;;;;;;3.50;1.40;;;17.40;70.00;;;;;;349864;28;817;-59
2023/11/02 00:25:43;;;;;;;3.35;1.25;;;17.50;70.10;;;;;;349787;28;984;-59
2023/11/02 00:25:57;;;;;;;3.60;1.60;;;17.40;70.10;;;;;;349732;28;994;-60
2023/11/02 00:26:08;;;;;;;3.75;1.48;;;17.40;70.40;;;;;;349822;28;992;-59
2023/11/02 00:26:19;;;;;;;3.77;1.30;;;17.40;70.50;;;;;;349797;28;1024;-60
2023/11/02 00:26:30;;;;;;;5.30;1.83;;;17.40;70.50;;;;;;349771;28;870;-60
2023/11/02 00:26:40;;;;;;;6.17;2.20;;;17.40;70.40;;;;;;349773;28;2762;-59
2023/11/02 00:26:51;;;;;;;6.87;2.53;;;17.40;70.20;;;;;;349871;28;972;-59
2023/11/02 00:27:02;;;;;;;6.07;2.67;;;17.40;70.10;;;;;;349672;28;1178;-59
2023/11/02 00:27:13;;;;;;;6.28;2.58;;;17.50;70.10;;;;;;349831;28;1035;-60
2023/11/02 00:27:24;;;;;;;6.80;2.30;;;17.50;70.10;;;;;;349791;28;1165;-61
2023/11/02 00:27:34;;;;;;;7.10;1.92;;;17.50;70.20;;;;;;349761;28;944;-60
2023/11/02 00:27:45;;;;;;;6.87;1.80;;;17.50;70.20;;;;;;349881;28;1810;-60
2023/11/02 00:27:57;;;;;;;6.00;1.40;;;17.50;70.10;;;;;;349888;28;840;-60
2023/11/02 00:28:11;;;;;;;5.05;1.30;;;17.60;70.10;;;;;;349683;28;1646;-60
2023/11/02 00:28:22;;;;;;;3.90;1.23;;;17.60;70.00;;;;;;349819;28;979;-59
2023/11/02 00:28:32;;;;;;;3.75;1.35;;;17.60;69.90;;;;;;349782;28;920;-60
2023/11/02 00:28:43;;;;;;;4.05;1.60;;;17.60;69.90;;;;;;349788;28;1039;-60
2023/11/02 00:28:54;;;;;;;4.90;1.87;;;17.60;70.00;;;;;;349814;28;884;-60
2023/11/02 00:29:05;;;;;;;6.45;2.05;;;17.60;70.00;;;;;;349879;28;873;-60
2023/11/02 00:29:15;;;;;;;6.82;1.98;;;17.60;70.10;;;;;;349767;28;877;-60
2023/11/02 00:29:26;;;;;;;7.05;1.85;;;17.60;70.00;;;;;;349811;28;1017;-59
2023/11/02 00:29:39;;;;;;;5.93;1.57;;;17.60;69.90;;;;;;349862;28;836;-60
2023/11/02 00:29:49;;;;;;;5.45;1.45;;;17.60;70.00;;;;;;349750;28;1059;-60
2023/11/02 00:30:00;;;;;;;4.80;1.25;;;17.60;70.10;;;;;;349769;28;1023;-60
2023/11/02 00:30:11;;;;;;;4.63;1.57;;;17.60;70.00;;;;;;349771;28;1157;-60
2023/11/02 00:30:22;;;;;;;5.40;1.77;;;17.60;70.10;;;;;;349705;28;1067;-60
2023/11/02 00:30:35;;;;;;;5.35;1.85;;;17.60;70.10;;;;;;349807;28;1192;-60
2023/11/02 00:30:48;;;;;;;5.35;2.13;;;17.60;70.10;;;;;;349785;28;1015;-60
2023/11/02 00:31:00;;;;;;;5.35;2.20;;;17.70;70.10;;;;;;349720;28;997;-60
2023/11/02 00:31:11;;;;;;;5.10;1.90;;;17.70;70.00;;;;;;349839;28;848;-60
2023/11/02 00:31:22;;;;;;;5.38;1.80;;;17.70;69.90;;;;;;349784;28;1087;-60
2023/11/02 00:31:34;;;;;;;5.40;1.80;;;17.70;69.80;;;;;;349706;28;1035;-60
2023/11/02 00:31:45;;;;;;;5.25;1.88;;;17.70;69.90;;;;;;349856;28;1141;-60
2023/11/02 00:31:56;;;;;;;5.15;1.77;;;17.70;70.00;;;;;;349848;28;940;-60
2023/11/02 00:32:10;;;;;;;4.07;1.55;;;17.70;70.10;;;;;;349667;28;1119;-60
2023/11/02 00:32:21;;;;;;;4.07;1.40;;;17.70;70.10;;;;;;349782;28;988;-60
2023/11/02 00:32:33;;;;;;;4.75;1.48;;;17.70;70.10;;;;;;349779;28;1023;-60
2023/11/02 00:32:44;;;;;;;4.78;1.50;;;17.70;70.00;;;;;;349759;28;1001;-59
2023/11/02 00:32:55;;;;;;;4.85;1.50;;;17.70;70.00;;;;;;349741;28;1078;-60
2023/11/02 00:33:06;;;;;;;4.75;1.45;;;17.70;70.10;;;;;;349830;28;1063;-60
2023/11/02 00:33:18;;;;;;;4.63;1.55;;;17.70;70.10;;;;;;349715;28;1283;-60
2023/11/02 00:33:29;;;;;;;3.63;1.60;;;17.70;70.10;;;;;;349800;28;940;-60
2023/11/02 00:33:39;;;;;;;3.95;1.83;;;17.70;70.10;;;;;;349774;28;1395;-60
2023/11/02 00:33:50;;;;;;;4.53;1.90;;;17.70;70.20;;;;;;349742;28;1021;-60
2023/11/02 00:34:01;;;;;;;4.93;1.80;;;17.70;70.30;;;;;;349858;28;809;-60
2023/11/02 00:34:11;;;;;;;4.97;1.83;;;17.70;70.30;;;;;;349729;28;1918;-60
2023/11/02 00:34:22;;;;;;;4.85;1.80;;;17.70;70.20;;;;;;349768;28;912;-60
2023/11/02 00:34:34;;;;;;;4.57;1.83;;;17.70;70.40;;;;;;349772;28;1027;-60
2023/11/02 00:34:46;;;;;;;4.43;1.80;;;17.70;70.40;;;;;;349804;28;991;-60
2023/11/02 00:34:56;;;;;;;5.03;1.80;;;17.70;70.30;;;;;;349668;28;915;-60
2023/11/02 00:35:07;;;;;;;5.03;1.75;;;17.70;70.30;;;;;;349865;28;1003;-60
2023/11/02 00:35:19;;;;;;;4.90;1.58;;;17.70;70.30;;;;;;349863;28;919;-60
2023/11/02 00:35:30;;;;;;;4.65;1.30;;;17.70;70.40;;;;;;349785;28;937;-60
2023/11/02 00:35:43;;;;;;;5.47;1.37;;;17.70;70.40;;;;;;349715;28;1141;-59
2023/11/02 00:35:54;;;;;;;5.80;1.50;;;17.70;70.40;;;;;;349738;28;1040;-60
2023/11/02 00:36:07;;;;;;;5.15;1.60;;;17.70;70.40;;;;;;349830;28;999;-60
2023/11/02 00:36:18;;;;;;;4.53;1.67;;;17.60;70.40;;;;;;349750;28;1976;-60
2023/11/02 00:36:31;;;;;;;4.17;1.50;;;17.60;70.50;;;;;;349715;28;879;-60
2023/11/02 00:36:42;;;;;;;4.65;1.60;;;17.60;70.50;;;;;;349793;28;1090;-60
2023/11/02 00:36:53;;;;;;;6.07;1.67;;;17.60;70.50;;;;;;349828;28;987;-60
2023/11/02 00:37:04;;;;;;;6.10;1.80;;;17.60;70.60;;;;;;349823;28;1019;-59
2023/11/02 00:37:15;;;;;;;5.57;2.03;;;17.60;70.60;;;;;;349718;28;1058;-60
2023/11/02 00:37:25;;;;;;;4.97;2.35;;;17.60;70.60;;;;;;349817;28;888;-60
2023/11/02 00:37:39;;;;;;;4.53;2.30;;;17.60;70.60;;;;;;349805;28;821;-60
2023/11/02 00:37:49;;;;;;;5.90;2.40;;;17.60;70.80;;;;;;349799;28;1128;-60
2023/11/02 00:38:00;;;;;;;7.50;2.53;;;17.50;70.90;;;;;;349732;28;993;-60
2023/11/02 00:38:16;;;;;;;7.78;2.55;;;17.50;71.10;;;;;;349786;28;1099;-60
2023/11/02 00:38:27;;;;;;;4.20;1.75;;;17.50;71.10;;;;;;349775;28;1062;-60
2023/11/02 00:38:38;;;;;;;4.25;1.42;;;17.50;71.10;;;;;;349729;28;1031;-60
2023/11/02 00:38:49;;;;;;;4.15;1.25;;;17.50;71.10;;;;;;349708;28;1463;-59
2023/11/02 00:38:59;;;;;;;3.92;1.45;;;17.50;71.00;;;;;;349892;28;947;-60
2023/11/02 00:39:10;;;;;;;4.80;1.75;;;17.50;71.00;;;;;;349847;28;1074;-60
2023/11/02 00:39:21;;;;;;;5.27;1.87;;;17.50;71.00;;;;;;349772;28;1030;-60
2023/11/02 00:39:31;;;;;;;4.80;1.70;;;17.50;71.10;;;;;;349768;28;1031;-60
2023/11/02 00:39:42;;;;;;;3.55;1.60;;;17.60;71.10;;;;;;349792;28;1099;-60
2023/11/02 00:39:53;;;;;;;3.70;1.50;;;17.60;71.00;;;;;;349745;28;2401;-60
2023/11/02 00:40:05;;;;;;;4.72;1.48;;;17.60;70.90;;;;;;349681;28;1455;-60
2023/11/02 00:40:16;;;;;;;5.78;1.60;;;17.60;70.80;;;;;;349759;28;999;-60
2023/11/02 00:40:26;;;;;;;5.90;1.77;;;17.60;70.80;;;;;;349768;28;975;-60
2023/11/02 00:40:38;;;;;;;5.47;1.73;;;17.60;70.90;;;;;;349801;28;876;-60
2023/11/02 00:40:50;;;;;;;4.30;1.55;;;17.60;70.90;;;;;;349776;28;899;-60
2023/11/02 00:41:00;;;;;;;4.47;1.55;;;17.60;70.90;;;;;;349797;28;1069;-60
2023/11/02 00:41:12;;;;;;;5.53;1.63;;;17.60;71.00;;;;;;349772;28;1068;-60
2023/11/02 00:41:23;;;;;;;5.20;1.42;;;17.60;70.90;;;;;;349799;28;1735;-60
2023/11/02 00:41:35;;;;;;;5.13;1.40;;;17.70;71.10;;;;;;349732;28;943;-60
2023/11/02 00:41:47;;;;;;;4.20;1.30;;;17.60;71.10;;;;;;349776;28;995;-60
2023/11/02 00:41:58;;;;;;;4.50;1.42;;;17.60;71.10;;;;;;349706;28;1122;-60
2023/11/02 00:42:09;;;;;;;3.75;1.48;;;17.70;71.10;;;;;;349793;28;988;-59
2023/11/02 00:42:23;;;;;;;4.55;1.50;;;17.60;71.10;;;;;;349742;28;991;-59
2023/11/02 00:42:33;;;;;;;5.93;1.65;;;17.60;71.10;;;;;;349731;28;1047;-59
2023/11/02 00:42:45;;;;;;;6.37;1.70;;;17.60;71.20;;;;;;349705;28;1265;-60
2023/11/02 00:42:56;;;;;;;5.32;1.80;;;17.60;71.20;;;;;;349802;28;1027;-60
2023/11/02 00:43:08;;;;;;;4.03;1.70;;;17.60;71.30;;;;;;349735;28;1445;-60
2023/11/02 00:43:21;;;;;;;4.90;1.60;;;17.60;71.40;;;;;;349790;28;913;-60
2023/11/02 00:43:32;;;;;;;5.68;1.63;;;17.60;71.50;;;;;;349667;28;1058;-60
2023/11/02 00:43:43;;;;;;;6.13;1.60;;;17.60;71.40;;;;;;349798;28;1042;-60
2023/11/02 00:43:53;;;;;;;5.22;1.48;;;17.60;71.30;;;;;;349694;28;1302;-61
2023/11/02 00:44:05;;;;;;;4.47;1.40;;;17.60;71.30;;;;;;349826;28;972;-60
2023/11/02 00:44:17;;;;;;;4.00;1.42;;;17.60;71.30;;;;;;349727;28;1034;-60
2023/11/02 00:44:28;;;;;;;4.70;1.48;;;17.60;71.40;;;;;;349824;28;1077;-60
2023/11/02 00:44:40;;;;;;;5.43;1.63;;;17.60;71.10;;;;;;349768;28;985;-60
2023/11/02 00:44:50;;;;;;;5.72;1.70;;;17.60;71.10;;;;;;349851;28;908;-60
2023/11/02 00:45:02;;;;;;;4.70;1.63;;;17.60;71.30;;;;;;349626;28;902;-60
2023/11/02 00:45:12;;;;;;;4.35;1.67;;;17.60;71.40;;;;;;349703;28;934;-60
2023/11/02 00:45:24;;;;;;;5.38;1.83;;;17.60;71.30;;;;;;349672;28;1792;-60
2023/11/02 00:45:41;;;;;;;5.78;1.90;;;17.60;71.40;;;;;;349613;28;1891;-60
2023/11/02 00:45:52;;;;;;;4.70;1.63;;;17.70;71.20;;;;;;349692;28;848;-60
2023/11/02 00:46:03;;;;;;;4.93;1.50;;;17.70;71.10;;;;;;349688;28;1058;-60
2023/11/02 00:46:14;;;;;;;4.82;1.40;;;17.70;71.10;;;;;;349608;28;1185;-59
2023/11/02 00:46:26;;;;;;;4.55;1.40;;;17.70;71.00;;;;;;349707;28;1038;-60
2023/11/02 00:46:37;;;;;;;4.22;1.40;;;17.70;71.10;;;;;;349592;28;1987;-60
2023/11/02 00:46:47;;;;;;;4.57;1.50;;;17.70;71.10;;;;;;349726;28;865;-60
2023/11/02 00:46:59;;;;;;;4.65;1.60;;;17.70;71.20;;;;;;349743;28;960;-60
2023/11/02 00:47:10;;;;;;;3.90;1.58;;;17.70;71.30;;;;;;349767;28;1123;-60
2023/11/02 00:47:20;;;;;;;3.42;1.33;;;17.70;71.30;;;;;;349726;28;959;-60
2023/11/02 00:47:31;;;;;;;4.00;1.47;;;17.70;71.40;;;;;;349794;28;1019;-60
2023/11/02 00:47:42;;;;;;;4.82;1.70;;;17.70;71.30;;;;;;349749;28;1102;-60
2023/11/02 00:47:53;;;;;;;5.18;1.67;;;17.70;71.40;;;;;;349811;28;1003;-60
2023/11/02 00:48:12;;;;;;;4.28;1.58;;;17.70;71.30;;;;;;349672;28;1137;-60
2023/11/02 00:48:32;;;;;;;5.25;1.52;;;17.70;71.20;;;;;;349779;28;1062;-60
2023/11/02 00:48:44;;;;;;;4.28;1.40;;;17.70;71.40;;;;;;349773;28;1082;-60
2023/11/02 00:48:55;;;;;;;4.57;1.30;;;17.70;71.40;;;;;;349692;28;1062;-60
2023/11/02 00:49:39;;;;;;;4.82;1.33;;;17.70;71.30;;;;;;349737;28;979;-60
2023/11/02 00:49:49;;;;;;;6.13;1.50;;;17.70;71.50;;;;;;348516;28;1866;-59
2023/11/02 00:50:00;;;;;;;5.82;1.50;;;17.70;71.70;;;;;;349827;28;1034;-60
2023/11/02 00:50:40;;;;;;;5.07;1.40;;;17.70;71.60;;;;;;349811;28;1173;-58
2023/11/02 00:51:24;;;;;;;4.07;1.40;;;17.70;71.80;;;;;;348133;28;955;-59
2023/11/02 00:51:35;;;;;;;3.97;1.50;;;17.70;71.80;;;;;;349732;28;1007;-60
2023/11/02 00:51:58;;;;;;;3.95;1.40;;;17.70;71.70;;;;;;349770;28;1775;-60
2023/11/02 00:52:09;;;;;;;5.00;1.25;;;17.70;71.70;;;;;;349752;28;1027;-59
2023/11/02 00:52:20;;;;;;;4.00;1.30;;;17.70;71.60;;;;;;349762;28;1001;-60
2023/11/02 00:52:31;;;;;;;3.75;1.20;;;17.60;71.80;;;;;;349744;28;1531;-60
2023/11/02 00:52:42;;;;;;;2.80;1.10;;;17.60;71.80;;;;;;349766;28;995;-60
2023/11/02 00:52:53;;;;;;;2.97;1.10;;;17.60;71.80;;;;;;349799;28;936;-60
2023/11/02 00:53:05;;;;;;;3.55;1.13;;;17.60;71.90;;;;;;349759;28;987;-60
2023/11/02 00:53:15;;;;;;;3.65;1.23;;;17.60;71.80;;;;;;349726;28;1110;-60
2023/11/02 00:53:26;;;;;;;3.38;1.20;;;17.70;71.90;;;;;;349788;28;1808;-60
2023/11/02 00:53:43;;;;;;;3.40;1.20;;;17.60;71.80;;;;;;349741;28;972;-60
2023/11/02 00:53:56;;;;;;;3.50;1.10;;;17.70;71.80;;;;;;349828;28;867;-60
2023/11/02 00:54:08;;;;;;;3.47;1.27;;;17.60;71.70;;;;;;349695;28;2532;-60
2023/11/02 00:54:43;;;;;;;4.55;1.50;;;17.50;71.90;;;;;;349748;28;1989;-60
2023/11/02 00:54:57;;;;;;;4.18;1.17;;;17.40;72.40;;;;;;349776;28;895;-60
2023/11/02 00:55:35;;;;;;;4.38;1.20;;;17.30;72.50;;;;;;349782;28;991;-59
2023/11/02 00:55:46;;;;;;;5.90;1.27;;;17.40;72.60;;;;;;349520;28;1995;-60
2023/11/02 00:55:57;;;;;;;4.85;1.15;;;17.40;72.50;;;;;;349605;28;947;-60
2023/11/02 00:56:08;;;;;;;3.03;1.10;;;17.40;72.40;;;;;;349663;28;984;-60
2023/11/02 00:56:19;;;;;;;2.90;1.05;;;17.40;72.40;;;;;;349778;28;1018;-60
2023/11/02 00:56:35;;;;;;;3.40;1.23;;;17.40;72.40;;;;;;349634;28;1022;-60
2023/11/02 00:56:46;;;;;;;3.15;1.30;;;17.50;72.50;;;;;;349795;28;947;-59
2023/11/02 00:56:56;;;;;;;2.58;1.10;;;17.50;72.50;;;;;;349729;28;1337;-60
2023/11/02 00:57:12;;;;;;;2.97;1.13;;;17.50;72.30;;;;;;349814;28;1043;-60
2023/11/02 00:57:28;;;;;;;3.75;1.05;;;17.50;72.30;;;;;;349764;28;1010;-60
2023/11/02 00:57:40;;;;;;;3.97;1.10;;;17.60;72.20;;;;;;349723;28;1134;-60
2023/11/02 00:57:51;;;;;;;3.60;1.17;;;17.50;72.10;;;;;;349764;28;1216;-60
2023/11/02 00:58:10;;;;;;;2.85;1.10;;;17.50;72.10;;;;;;349682;28;1058;-62
2023/11/02 00:58:28;;;;;;;3.25;1.27;;;17.50;72.20;;;;;;349767;28;967;-60
2023/11/02 00:58:48;;;;;;;3.55;1.05;;;17.50;72.30;;;;;;349700;28;1136;-60
2023/11/02 00:59:00;;;;;;;5.68;1.30;;;17.50;72.20;;;;;;349682;28;967;-60
2023/11/02 00:59:18;;;;;;;5.82;1.40;;;17.50;72.30;;;;;;349756;28;1023;-60
2023/11/02 00:59:30;;;;;;;6.28;1.23;;;17.50;72.30;;;;;;349726;28;1097;-60
2023/11/02 00:59:41;;;;;;;5.78;1.30;;;17.50;72.20;;;;;;349696;28;1019;-60
2023/11/02 00:59:52;;;;;;;3.03;1.10;;;17.60;72.10;;;;;;349817;28;968;-59
2023/11/02 01:00:04;;;;;;;3.80;1.17;;;17.60;72.00;;;;;;349787;28;892;-59
2023/11/02 01:00:47;;;;;;;3.95;1.17;;;17.50;72.10;;;;;;349755;28;912;-60
2023/11/02 01:01:05;;;;;;;3.47;1.00;;;17.50;72.20;;;;;;349605;28;1109;-60
2023/11/02 01:01:18;;;;;;;3.92;1.40;;;17.50;72.20;;;;;;349706;28;1870;-60
2023/11/02 01:01:29;;;;;;;4.38;1.65;;;17.60;72.10;;;;;;349729;28;891;-60
2023/11/02 01:01:41;;;;;;;4.03;1.48;;;17.50;72.10;;;;;;349733;28;1847;-60
2023/11/02 01:01:52;;;;;;;4.43;1.38;;;17.60;72.10;;;;;;349744;28;1081;-60
2023/11/02 01:02:05;;;;;;;4.05;1.20;;;17.60;72.10;;;;;;349679;28;1238;-59
2023/11/02 01:02:17;;;;;;;3.33;1.02;;;17.60;72.10;;;;;;349751;28;995;-60
2023/11/02 01:02:35;;;;;;;2.58;0.90;;;17.60;72.10;;;;;;349745;28;1033;-60
2023/11/02 01:02:46;;;;;;;3.53;1.00;;;17.60;72.10;;;;;;349642;28;1011;-60
2023/11/02 01:02:57;;;;;;;3.67;0.95;;;17.60;72.20;;;;;;349791;28;1022;-60
2023/11/02 01:03:08;;;;;;;4.38;0.93;;;17.50;72.30;;;;;;349765;28;963;-60
2023/11/02 01:03:24;;;;;;;4.18;0.95;;;17.50;72.30;;;;;;349643;28;1262;-60
2023/11/02 01:03:35;;;;;;;2.63;0.80;;;17.50;72.30;;;;;;349676;28;1646;-60
2023/11/02 01:04:16;;;;;;;2.72;0.88;;;17.50;72.30;;;;;;349808;28;797;-60
2023/11/02 01:04:41;;;;;;;2.90;1.02;;;17.40;72.40;;;;;;348019;28;1049;-60
2023/11/02 01:04:54;;;;;;;2.90;1.23;;;17.50;72.70;;;;;;348167;28;929;-60
2023/11/02 01:05:23;;;;;;;3.45;1.13;;;17.50;72.70;;;;;;348091;28;976;-61
2023/11/02 01:05:34;;;;;;;3.28;0.90;;;17.50;72.70;;;;;;349764;28;868;-60
2023/11/02 01:05:45;;;;;;;3.10;0.88;;;17.50;72.70;;;;;;349667;28;1152;-60
2023/11/02 01:05:56;;;;;;;2.63;0.80;;;17.50;72.70;;;;;;349743;28;1085;-60
2023/11/02 01:06:17;;;;;;;2.97;0.90;;;17.50;72.50;;;;;;349768;28;1408;-60
2023/11/02 01:06:30;;;;;;;3.03;1.10;;;17.60;72.50;;;;;;349594;28;1050;-60
2023/11/02 01:06:40;;;;;;;2.65;1.00;;;17.60;72.50;;;;;;349740;28;1161;-59
2023/11/02 01:06:51;;;;;;;3.70;1.13;;;17.60;72.40;;;;;;349821;28;845;-59
2023/11/02 01:07:02;;;;;;;3.63;1.02;;;17.60;72.40;;;;;;349771;28;991;-60
2023/11/02 01:07:14;;;;;;;3.90;1.00;;;17.60;72.40;;;;;;349647;28;1556;-60
2023/11/02 01:07:28;;;;;;;2.72;0.85;;;17.60;72.20;;;;;;349739;28;1106;-60
2023/11/02 01:07:40;;;;;;;2.35;0.80;;;17.60;72.30;;;;;;349811;28;988;-60
2023/11/02 01:07:51;;;;;;;2.10;0.90;;;17.60;72.30;;;;;;349743;28;1106;-61
2023/11/02 01:08:03;;;;;;;3.08;0.88;;;17.60;72.30;;;;;;349661;28;1292;-60
2023/11/02 01:08:14;;;;;;;4.03;0.93;;;17.70;72.30;;;;;;349727;28;1323;-58
2023/11/02 01:08:34;;;;;;;3.60;0.80;;;17.60;72.40;;;;;;349768;28;1801;-58
2023/11/02 01:08:55;;;;;;;3.88;0.85;;;17.60;72.40;;;;;;349676;28;1050;-60
2023/11/02 01:09:14;;;;;;;5.38;1.17;;;17.60;72.50;;;;;;349746;28;1027;-60
2023/11/02 01:09:47;;;;;;;5.03;1.20;;;17.60;72.50;;;;;;349636;28;1002;-60
2023/11/02 01:10:02;;;;;;;2.80;0.90;;;17.60;72.70;;;;;;349705;28;975;-60
2023/11/02 01:10:14;;;;;;;2.80;0.90;;;17.60;72.70;;;;;;349710;28;839;-61
2023/11/02 01:10:26;;;;;;;2.88;0.88;;;17.60;72.60;;;;;;349719;28;1114;-59
2023/11/02 01:10:37;;;;;;;2.65;0.90;;;17.60;72.60;;;;;;349768;28;915;-60
2023/11/02 01:10:48;;;;;;;2.63;0.95;;;17.60;72.60;;;;;;349697;28;1086;-60
2023/11/02 01:10:59;;;;;;;3.00;0.90;;;17.70;72.50;;;;;;349726;28;1133;-61
2023/11/02 01:11:10;;;;;;;3.08;1.05;;;17.70;72.50;;;;;;349738;28;1008;-60
2023/11/02 01:11:27;;;;;;;3.38;1.10;;;17.70;72.50;;;;;;349758;28;979;-59
2023/11/02 01:11:38;;;;;;;3.10;0.82;;;17.70;72.30;;;;;;349749;28;943;-60
2023/11/02 01:11:48;;;;;;;2.72;0.80;;;17.70;72.40;;;;;;349781;28;979;-60
2023/11/02 01:11:59;;;;;;;2.55;0.70;;;17.70;72.40;;;;;;349743;28;1161;-59
2023/11/02 01:12:10;;;;;;;2.25;0.80;;;17.70;72.50;;;;;;349687;28;1362;-60
2023/11/02 01:12:35;;;;;;;2.05;0.80;;;17.70;72.60;;;;;;349656;28;1454;-60
2023/11/02 01:12:46;;;;;;;2.03;0.90;;;17.70;72.60;;;;;;349511;28;1185;-60
2023/11/02 01:12:57;;;;;;;2.40;1.10;;;17.70;72.70;;;;;;349603;28;1047;-60
2023/11/02 01:13:09;;;;;;;2.55;1.23;;;17.60;72.70;;;;;;349653;28;883;-60
2023/11/02 01:13:20;;;;;;;2.63;1.30;;;17.70;72.70;;;;;;349658;28;849;-60
2023/11/02 01:13:30;;;;;;;2.80;1.38;;;17.70;72.80;;;;;;349592;28;1095;-60
2023/11/02 01:13:41;;;;;;;2.60;1.30;;;17.60;72.80;;;;;;349605;28;943;-60
2023/11/02 01:13:53;;;;;;;2.63;1.17;;;17.70;72.70;;;;;;349616;28;1066;-60
2023/11/02 01:14:13;;;;;;;2.30;0.80;;;17.60;72.70;;;;;;349608;28;1496;-61
2023/11/02 01:14:48;;;;;;;2.13;0.80;;;17.70;72.80;;;;;;349571;28;966;-60